Skip Navigation Links Skip Navigation Links

Current Weather

Rygge, Norway

For information only: do not use for flight planning or navigation.
Latest weather
Observation time Monday, November 29, 2021 10:20 PM CET
Local time Monday, November 29, 2021 10:39 PM CET
Flight conditions Conditions unknown
Winds
Wind direction Southeast (130°)
Wind speed 9 mph
Sky condition
Ceiling 1,800 ft. overcast
Cloud layer overcast 1,800 ft.
Temperature 23°F
Dewpoint 21°F
Altimeter 29.53 in.Hg
Derived measurements
Relative humidity 93%
Wind chill 13°F
Density altitude -1779 ft.
Remarks
Fully automated report.
METAR ENRY 292120Z AUTO 13008KT 9999NDV OVC018/// M05/M06 Q1000

Settings

Location code

InnerDrive.Weather 4.0.6770.0 Release CLR 4.0.30319.42000
Copyright ©2018 Inner Drive Technology. All rights reserved. Portions Copyright ©1986-2018 David Braverman.

Find weather

Site navigation


Skip Navigation Links

Place info

Page info

PayPal - The safer, easier way to pay online!

Return home.

Copyright ©2021 Inner Drive Technology. Purveyors of fine, hand-crafted computer software. Page printed 2021-11-29T21:39:18 UTC.